Time;durP1;ratioP1;P1;durP2;ratioP2;P2;SDS_P1;SDS_P2;PMS_P1;PMS_P2;Temp;Humidity;BMP_temperature;BMP_pressure;BME280_temperature;BME280_humidity;BME280_pressure;Samples;Min_cycle;Max_cycle;Signal;HPM_P1;HPM_P2
2022/04/17 00:00:32;;;;;;;13.93;9.48;;;5.00;99.90;;;;;;5074298;28;20045;-89
2022/04/17 00:02:58;;;;;;;15.02;8.93;;;5.00;99.90;;;;;;5040168;28;20041;-89
2022/04/17 00:05:24;;;;;;;11.30;8.70;;;5.10;99.90;;;;;;5074176;28;20078;-86
2022/04/17 00:07:51;;;;;;;12.10;9.35;;;5.00;99.90;;;;;;5056068;28;20056;-86
2022/04/17 00:10:17;;;;;;;15.27;10.20;;;5.00;99.90;;;;;;5072838;28;20032;-87
2022/04/17 00:12:43;;;;;;;11.05;9.02;;;5.10;99.90;;;;;;5039878;28;20021;-87
2022/04/17 00:15:11;;;;;;;10.73;8.90;;;5.10;99.90;;;;;;5056564;28;20078;-88
2022/04/17 00:17:44;;;;;;;11.65;8.88;;;5.10;99.90;;;;;;5074258;28;20055;-87
2022/04/17 00:20:15;;;;;;;10.40;8.18;;;5.10;99.90;;;;;;5041944;28;20071;-88
2022/04/17 00:22:41;;;;;;;14.48;9.68;;;5.10;99.90;;;;;;5056181;28;20363;-87
2022/04/17 00:25:08;;;;;;;12.43;9.25;;;5.10;99.90;;;;;;5056178;28;20031;-87
2022/04/17 00:27:35;;;;;;;12.43;9.02;;;5.10;99.90;;;;;;5056505;28;20070;-87
2022/04/17 00:30:06;;;;;;;11.45;8.48;;;5.10;99.90;;;;;;5055998;28;20024;-87
2022/04/17 00:32:32;;;;;;;12.82;8.63;;;5.20;99.90;;;;;;5073754;28;20029;-87
2022/04/17 00:34:58;;;;;;;10.13;8.52;;;5.20;99.90;;;;;;5039356;28;20073;-87
2022/04/17 00:37:24;;;;;;;11.10;8.73;;;5.20;99.90;;;;;;5076558;28;20028;-88
2022/04/17 00:39:51;;;;;;;11.27;8.75;;;5.20;99.90;;;;;;5060424;28;20025;-88
2022/04/17 00:42:17;;;;;;;15.50;10.38;;;5.20;99.90;;;;;;5059906;28;20028;-87
2022/04/17 00:44:43;;;;;;;8.88;7.07;;;5.20;99.90;;;;;;5043679;28;20032;-87
2022/04/17 00:47:11;;;;;;;11.05;7.35;;;5.20;99.90;;;;;;5077423;28;20028;-87
2022/04/17 00:49:37;;;;;;;9.52;7.57;;;5.20;99.90;;;;;;5077882;28;20035;-87
2022/04/17 00:52:04;;;;;;;9.25;7.78;;;5.20;99.90;;;;;;5077341;28;20024;-87
2022/04/17 00:54:31;;;;;;;9.20;7.50;;;5.20;99.90;;;;;;5059808;28;20078;-87
2022/04/17 00:56:59;;;;;;;13.32;8.77;;;5.20;99.90;;;;;;5077430;28;20016;-87
2022/04/17 00:59:27;;;;;;;13.60;9.45;;;5.20;99.90;;;;;;5059667;28;20483;-87
2022/04/17 01:01:54;;;;;;;9.40;7.85;;;5.30;99.90;;;;;;5059780;28;20036;-87
2022/04/17 01:04:20;;;;;;;9.30;7.65;;;5.20;99.90;;;;;;5059728;28;20036;-87
2022/04/17 01:06:46;;;;;;;10.35;7.93;;;5.30;99.90;;;;;;5059221;28;20186;-87
2022/04/17 01:09:17;;;;;;;9.38;7.70;;;5.20;99.90;;;;;;5077602;28;20031;-87
2022/04/17 01:11:43;;;;;;;13.48;9.35;;;5.20;99.90;;;;;;5043579;28;20127;-87
2022/04/17 01:14:12;;;;;;;49.70;21.83;;;5.30;99.90;;;;;;5059942;28;20063;-88
2022/04/17 01:16:40;;;;;;;113.78;40.28;;;5.40;99.90;;;;;;5059722;28;20021;-88
2022/04/17 01:19:11;;;;;;;26.02;14.30;;;5.40;99.90;;;;;;5043048;28;20036;-87
2022/04/17 01:21:41;;;;;;;66.50;25.80;;;5.40;99.90;;;;;;5059559;28;20021;-87
2022/04/17 01:27:00;;;;;;;40.03;18.33;;;5.30;99.90;;;;;;5077636;28;20036;-88
2022/04/17 01:29:31;;;;;;;14.90;9.70;;;5.30;99.90;;;;;;5043601;28;20104;-87
2022/04/17 01:31:58;;;;;;;18.73;11.27;;;5.30;99.90;;;;;;5077352;28;20029;-87
2022/04/17 01:34:25;;;;;;;12.32;9.23;;;5.30;99.90;;;;;;5076535;28;20376;-87
2022/04/17 01:36:52;;;;;;;19.25;10.52;;;5.30;99.90;;;;;;5059066;28;20021;-87
2022/04/17 01:39:18;;;;;;;19.50;11.82;;;5.30;99.90;;;;;;5059315;28;20043;-88
2022/04/17 01:41:46;;;;;;;11.30;8.65;;;5.30;99.90;;;;;;5059012;28;20025;-87
2022/04/17 01:44:11;;;;;;;20.40;11.93;;;5.30;99.90;;;;;;5059090;28;20115;-87
2022/04/17 01:46:38;;;;;;;42.13;18.60;;;5.30;99.90;;;;;;5058765;28;20121;-87
2022/04/17 01:49:04;;;;;;;17.02;10.68;;;5.30;99.90;;;;;;5075144;28;20033;-88
2022/04/17 01:51:39;;;;;;;16.40;11.35;;;5.30;99.90;;;;;;5058699;28;20024;-87
2022/04/17 01:54:07;;;;;;;44.85;20.17;;;5.30;99.90;;;;;;5041906;28;20020;-87
2022/04/17 01:56:34;;;;;;;17.35;11.85;;;5.30;99.90;;;;;;5058881;28;20039;-87
2022/04/17 01:59:01;;;;;;;26.73;14.32;;;5.30;99.90;;;;;;5058476;28;20020;-87
2022/04/17 02:01:27;;;;;;;21.40;13.82;;;5.30;99.90;;;;;;5076951;28;20017;-87
2022/04/17 02:03:54;;;;;;;17.30;12.50;;;5.30;99.90;;;;;;5076461;28;20078;-88
2022/04/17 02:06:19;;;;;;;19.73;12.30;;;5.20;99.90;;;;;;5058802;28;20028;-87
2022/04/17 02:08:47;;;;;;;15.93;11.93;;;5.20;99.90;;;;;;5041638;28;20021;-87
2022/04/17 02:11:13;;;;;;;18.98;12.43;;;5.10;99.90;;;;;;5042314;28;20503;-87
2022/04/17 02:13:39;;;;;;;21.17;14.20;;;5.10;99.90;;;;;;5058865;28;20036;-89
2022/04/17 02:16:06;;;;;;;33.45;16.88;;;5.30;99.90;;;;;;5058005;28;20111;-88
2022/04/17 02:18:32;;;;;;;32.40;17.27;;;5.30;99.90;;;;;;5057838;28;20066;-87
2022/04/17 02:20:59;;;;;;;24.85;15.68;;;5.30;99.90;;;;;;5057891;28;20029;-87
2022/04/17 02:23:25;;;;;;;15.43;11.18;;;5.20;99.90;;;;;;5076091;28;20078;-87
2022/04/17 02:25:52;;;;;;;35.28;15.88;;;5.20;99.90;;;;;;5075780;28;20028;-87
2022/04/17 02:28:19;;;;;;;11.40;8.95;;;5.30;99.90;;;;;;5057969;28;20042;-87
2022/04/17 02:30:45;;;;;;;10.90;8.25;;;5.30;99.90;;;;;;5075733;28;20024;-87
2022/04/17 02:33:12;;;;;;;11.63;7.97;;;5.30;99.90;;;;;;5057723;28;20078;-86
2022/04/17 02:35:39;;;;;;;9.88;7.78;;;5.30;99.90;;;;;;5041118;28;20029;-87
2022/04/17 02:38:04;;;;;;;10.02;8.88;;;5.30;99.90;;;;;;5057749;28;20554;-87
2022/04/17 02:40:33;;;;;;;14.27;10.45;;;5.30;99.90;;;;;;5058104;28;20067;-87
2022/04/17 02:42:59;;;;;;;11.88;9.50;;;5.30;99.90;;;;;;5075589;28;20035;-87
2022/04/17 02:45:27;;;;;;;9.68;8.02;;;5.30;99.90;;;;;;5057380;28;20028;-87
2022/04/17 02:47:53;;;;;;;11.32;8.90;;;5.30;99.90;;;;;;5041382;28;20029;-87
2022/04/17 02:50:20;;;;;;;9.95;8.23;;;5.30;99.90;;;;;;5041012;28;20032;-87
2022/04/17 02:52:47;;;;;;;12.13;9.18;;;5.30;99.90;;;;;;5057740;28;20412;-87
2022/04/17 02:55:16;;;;;;;10.35;8.75;;;5.30;99.90;;;;;;5075244;28;20045;-87
2022/04/17 02:57:42;;;;;;;12.60;8.82;;;5.20;99.90;;;;;;5075323;28;20032;-87
2022/04/17 03:00:10;;;;;;;12.02;7.97;;;5.30;99.90;;;;;;5074004;28;20049;-87
2022/04/17 03:05:37;;;;;;;71.35;25.08;;;5.30;99.90;;;;;;5075504;28;20028;-87
2022/04/17 03:08:05;;;;;;;32.25;14.88;;;5.30;99.90;;;;;;5075041;28;20028;-87
2022/04/17 03:10:37;;;;;;;18.85;11.93;;;5.30;99.90;;;;;;5074821;28;20028;-87
2022/04/17 03:13:04;;;;;;;19.83;13.75;;;5.30;99.90;;;;;;5054096;28;20021;-87
2022/04/17 03:15:32;;;;;;;22.65;13.63;;;5.30;99.90;;;;;;5057009;28;20063;-87
2022/04/17 03:18:00;;;;;;;19.73;13.75;;;5.30;99.90;;;;;;5040569;28;20098;-87
2022/04/17 03:20:29;;;;;;;22.40;14.32;;;5.30;99.90;;;;;;5056655;28;20035;-87
2022/04/17 03:22:55;;;;;;;19.53;12.00;;;5.30;99.90;;;;;;5041126;28;20418;-88
2022/04/17 03:25:21;;;;;;;26.05;15.25;;;5.40;99.90;;;;;;5056824;28;20031;-87
2022/04/17 03:27:47;;;;;;;21.13;12.80;;;5.30;99.90;;;;;;5056921;28;20025;-87
2022/04/17 03:30:18;;;;;;;20.23;14.00;;;5.30;99.90;;;;;;5074166;28;20029;-87
2022/04/17 03:32:49;;;;;;;12.55;9.18;;;5.40;99.90;;;;;;5057137;28;20037;-87
2022/04/17 03:35:17;;;;;;;11.57;8.95;;;5.30;99.90;;;;;;5074674;28;20078;-87
2022/04/17 03:37:45;;;;;;;9.48;7.50;;;5.20;99.90;;;;;;5057091;28;20100;-87
2022/04/17 03:40:13;;;;;;;8.57;6.60;;;5.20;99.90;;;;;;5056535;28;20032;-87
2022/04/17 03:42:39;;;;;;;8.05;7.00;;;5.30;99.90;;;;;;5057052;28;20036;-87
2022/04/17 03:45:07;;;;;;;12.30;9.32;;;5.30;99.90;;;;;;5074360;28;20034;-87
2022/04/17 03:47:35;;;;;;;14.15;8.45;;;5.40;99.90;;;;;;5054476;28;20031;-87
2022/04/17 03:50:06;;;;;;;8.23;6.45;;;5.50;99.90;;;;;;5029581;28;20052;-89
2022/04/17 03:52:44;;;;;;;8.27;7.22;;;5.50;99.90;;;;;;5056396;28;20024;-87
2022/04/17 03:55:11;;;;;;;8.75;6.70;;;5.50;99.90;;;;;;5056593;28;20050;-87
2022/04/17 03:57:39;;;;;;;9.65;7.60;;;5.40;99.90;;;;;;5074119;28;20028;-87
2022/04/17 04:00:07;;;;;;;10.63;7.45;;;5.40;99.90;;;;;;5073710;28;20070;-87
2022/04/17 04:02:33;;;;;;;10.85;8.82;;;5.40;99.90;;;;;;5056229;28;20036;-88
2022/04/17 04:04:59;;;;;;;11.75;9.40;;;5.40;99.90;;;;;;5055647;28;20085;-87
2022/04/17 04:07:25;;;;;;;14.90;9.95;;;5.50;99.90;;;;;;5056240;28;20074;-88
2022/04/17 04:09:52;;;;;;;11.65;9.25;;;5.50;99.90;;;;;;5073824;28;20470;-86
2022/04/17 04:12:20;;;;;;;11.23;8.65;;;5.50;99.90;;;;;;5073304;28;20024;-86
2022/04/17 04:14:46;;;;;;;12.65;9.25;;;5.60;99.90;;;;;;5055969;28;20429;-85
2022/04/17 04:17:12;;;;;;;11.63;9.15;;;5.50;99.90;;;;;;5056067;28;20021;-87
2022/04/17 04:19:38;;;;;;;12.65;10.05;;;5.60;99.90;;;;;;5039652;28;20040;-87
2022/04/17 04:22:04;;;;;;;13.82;9.07;;;5.70;99.90;;;;;;5056568;28;20024;-87
2022/04/17 04:24:31;;;;;;;10.57;7.95;;;5.60;99.90;;;;;;5056224;28;20036;-88
2022/04/17 04:29:42;;;;;;;12.35;9.30;;;5.60;99.90;;;;;;5074316;28;20098;-88
2022/04/17 04:32:08;;;;;;;10.25;8.15;;;5.60;99.90;;;;;;5039956;28;20024;-89
2022/04/17 04:34:34;;;;;;;11.38;8.85;;;5.70;99.90;;;;;;5039873;28;20435;-88
2022/04/17 04:37:01;;;;;;;22.50;14.13;;;5.70;99.90;;;;;;5073804;28;20052;-88
2022/04/17 04:39:28;;;;;;;10.07;8.32;;;5.80;99.90;;;;;;5073060;28;20052;-88
2022/04/17 04:41:55;;;;;;;20.38;10.77;;;6.00;99.90;;;;;;5073228;28;20471;-88
2022/04/17 04:44:20;;;;;;;10.02;7.93;;;6.10;99.90;;;;;;5055261;28;20036;-88
2022/04/17 04:46:46;;;;;;;7.47;6.25;;;6.10;99.90;;;;;;5054805;28;20029;-88
2022/04/17 04:49:31;;;;;;;7.78;6.78;;;6.10;99.90;;;;;;5054347;28;20036;-88
2022/04/17 04:52:04;;;;;;;6.45;5.72;;;6.00;99.90;;;;;;5071894;28;20025;-86
2022/04/17 04:54:32;;;;;;;9.13;6.20;;;6.00;99.90;;;;;;5071640;28;20047;-87
2022/04/17 04:57:00;;;;;;;7.70;6.40;;;6.00;99.90;;;;;;5053775;28;20027;-86
2022/04/17 04:59:25;;;;;;;8.95;6.32;;;6.00;99.90;;;;;;5037161;28;20043;-87
2022/04/17 05:01:52;;;;;;;8.30;6.40;;;6.00;99.90;;;;;;5071717;28;20028;-87
2022/04/17 05:04:20;;;;;;;6.82;5.88;;;6.10;99.90;;;;;;5072589;28;20048;-86
2022/04/17 05:06:48;;;;;;;6.10;5.50;;;6.20;99.90;;;;;;5073826;28;20051;-87
2022/04/17 05:09:14;;;;;;;5.65;5.10;;;6.10;99.90;;;;;;5055913;28;20036;-87
2022/04/17 05:11:43;;;;;;;6.72;5.10;;;6.00;99.90;;;;;;5056062;28;20028;-87
2022/04/17 05:14:10;;;;;;;7.88;5.60;;;6.00;99.90;;;;;;5039215;28;20028;-87
2022/04/17 05:16:36;;;;;;;7.50;6.70;;;6.00;99.90;;;;;;5056174;28;20024;-87
2022/04/17 05:21:56;;;;;;;9.15;6.43;;;6.40;99.90;;;;;;5073946;28;20054;-88
2022/04/17 05:24:23;;;;;;;7.93;6.22;;;6.50;99.90;;;;;;5058273;28;20056;-88
2022/04/17 05:26:48;;;;;;;8.38;6.13;;;6.50;99.90;;;;;;5059170;28;20391;-87
2022/04/17 05:29:15;;;;;;;6.80;5.85;;;6.60;99.90;;;;;;5076891;28;20028;-87
2022/04/17 05:31:41;;;;;;;8.32;6.60;;;6.70;99.90;;;;;;5059274;28;20041;-87
2022/04/17 05:34:09;;;;;;;7.20;6.10;;;6.80;99.90;;;;;;5076796;28;20379;-87
2022/04/17 05:36:36;;;;;;;7.70;6.53;;;7.10;99.90;;;;;;5076312;28;20108;-87
2022/04/17 05:39:04;;;;;;;7.50;6.68;;;7.20;99.90;;;;;;5058679;28;20048;-87
2022/04/17 05:41:30;;;;;;;7.60;6.50;;;7.20;99.90;;;;;;5076887;28;20031;-87
2022/04/17 05:43:58;;;;;;;12.00;7.03;;;7.10;99.90;;;;;;5059185;28;20092;-87
2022/04/17 05:46:27;;;;;;;8.15;6.40;;;7.20;99.90;;;;;;5059057;28;20024;-87
2022/04/17 05:48:57;;;;;;;8.82;7.28;;;7.20;99.90;;;;;;5042186;28;20056;-88
2022/04/17 05:51:23;;;;;;;;;;;7.20;99.90;;;;;;5042846;28;20044;-87
2022/04/17 05:53:49;;;;;;;8.68;5.97;;;7.30;99.90;;;;;;5058530;28;19904;-87
2022/04/17 05:56:15;;;;;;;6.88;5.60;;;7.30;99.90;;;;;;5076429;28;20017;-87
2022/04/17 05:58:40;;;;;;;5.65;5.05;;;7.20;99.90;;;;;;5058648;28;20017;-87
2022/04/17 06:01:07;;;;;;;6.97;6.20;;;6.90;99.90;;;;;;5042470;28;20029;-88
2022/04/17 06:03:34;;;;;;;5.70;5.20;;;6.80;99.90;;;;;;5042054;28;20033;-87
2022/04/17 06:06:00;;;;;;;5.75;5.15;;;6.80;99.90;;;;;;5058026;28;20127;-88
2022/04/17 06:08:27;;;;;;;6.55;5.15;;;6.70;99.90;;;;;;5058405;28;20174;-87
2022/04/17 06:10:53;;;;;;;6.53;5.78;;;6.70;99.90;;;;;;5058516;28;20394;-87
2022/04/17 06:13:18;;;;;;;7.60;5.63;;;6.70;99.90;;;;;;5058357;28;20031;-86
2022/04/17 06:15:46;;;;;;;5.32;4.82;;;6.70;99.90;;;;;;5058237;28;20420;-86
2022/04/17 06:18:12;;;;;;;5.22;4.18;;;6.80;99.90;;;;;;5025592;28;20031;-86
2022/04/17 06:20:38;;;;;;;4.65;4.18;;;6.80;99.90;;;;;;5076021;28;20375;-86
2022/04/17 06:23:04;;;;;;;5.80;4.05;;;6.90;99.90;;;;;;5058241;28;20032;-86
2022/04/17 06:25:30;;;;;;;5.22;4.22;;;6.90;99.90;;;;;;5058152;28;20039;-86
2022/04/17 06:27:56;;;;;;;5.15;3.97;;;7.10;99.90;;;;;;5058113;28;20042;-86
2022/04/17 06:30:22;;;;;;;3.58;2.97;;;7.30;99.90;;;;;;5057708;28;20024;-87
2022/04/17 06:32:48;;;;;;;4.43;3.17;;;7.30;99.90;;;;;;5057680;28;20033;-86
2022/04/17 06:35:18;;;;;;;3.17;2.85;;;7.30;99.90;;;;;;5057919;28;20043;-86
2022/04/17 06:37:57;;;;;;;3.85;3.42;;;7.20;99.90;;;;;;5057987;28;20020;-86
2022/04/17 06:40:33;;;;;;;4.50;3.50;;;7.20;99.90;;;;;;5071766;28;20127;-87
2022/04/17 06:43:01;;;;;;;5.95;3.50;;;7.10;99.90;;;;;;5075449;28;20025;-85
2022/04/17 06:45:28;;;;;;;9.25;5.43;;;7.00;99.90;;;;;;5075387;28;20541;-86
2022/04/17 06:47:55;;;;;;;7.25;4.38;;;7.00;99.90;;;;;;5074960;28;20029;-86
2022/04/17 06:50:23;;;;;;;6.38;4.78;;;6.90;99.90;;;;;;5057555;28;20025;-86
2022/04/17 06:52:50;;;;;;;6.10;5.50;;;6.90;99.90;;;;;;5057452;28;20025;-86
2022/04/17 06:55:17;;;;;;;6.10;5.50;;;6.90;99.90;;;;;;5057299;28;20028;-86
2022/04/17 06:57:51;;;;;;;6.45;5.78;;;6.80;99.90;;;;;;5057408;28;20387;-86
2022/04/17 07:00:18;;;;;;;7.93;5.60;;;6.80;99.90;;;;;;5057620;28;20390;-86
2022/04/17 07:02:45;;;;;;;6.05;5.45;;;6.80;99.90;;;;;;5057174;28;20021;-87
2022/04/17 07:05:12;;;;;;;6.53;5.68;;;6.70;99.90;;;;;;5057233;28;20106;-86
2022/04/17 07:07:40;;;;;;;6.50;5.85;;;6.70;99.90;;;;;;5057545;28;20588;-86
2022/04/17 07:10:08;;;;;;;6.95;5.60;;;6.70;99.90;;;;;;5074846;28;20432;-86
2022/04/17 07:12:34;;;;;;;6.57;5.82;;;6.80;99.90;;;;;;5055738;28;20031;-86
2022/04/17 07:15:06;;;;;;;8.02;6.53;;;7.00;99.90;;;;;;5074838;28;20031;-86
2022/04/17 07:17:36;;;;;;;6.78;5.68;;;7.20;99.90;;;;;;5040809;28;20025;-86
2022/04/17 07:20:05;;;;;;;7.18;5.53;;;7.30;99.90;;;;;;5057167;28;20041;-86
2022/04/17 07:22:33;;;;;;;6.28;5.40;;;7.30;99.90;;;;;;5057016;28;20032;-85
2022/04/17 07:25:01;;;;;;;5.53;4.93;;;7.50;99.90;;;;;;5056779;28;20033;-86
2022/04/17 07:27:33;;;;;;;6.60;5.28;;;7.70;99.90;;;;;;5074642;28;20028;-86
2022/04/17 07:29:59;;;;;;;7.47;5.57;;;7.80;99.90;;;;;;5056584;28;20138;-86
2022/04/17 07:32:25;;;;;;;6.22;5.20;;;7.70;99.90;;;;;;5056507;28;20043;-86
2022/04/17 07:34:52;;;;;;;4.30;3.90;;;7.80;99.90;;;;;;5056461;28;20095;-86
2022/04/17 07:37:25;;;;;;;6.07;5.13;;;7.80;99.90;;;;;;5040397;28;20033;-86
2022/04/17 07:39:51;;;;;;;5.90;3.83;;;7.70;99.90;;;;;;5056484;28;20044;-85
2022/04/17 07:42:19;;;;;;;6.60;4.20;;;7.70;99.90;;;;;;5039884;28;20498;-85
2022/04/17 07:44:51;;;;;;;4.35;3.88;;;7.80;99.90;;;;;;5057025;28;20065;-86
2022/04/17 07:47:17;;;;;;;6.38;3.67;;;7.90;99.90;;;;;;5056003;28;20021;-86
2022/04/17 07:49:43;;;;;;;3.80;3.38;;;7.80;99.90;;;;;;5074263;28;20031;-86
2022/04/17 07:52:10;;;;;;;3.47;3.17;;;7.80;99.90;;;;;;5056327;28;20043;-86
2022/04/17 07:54:37;;;;;;;4.10;3.55;;;7.70;99.90;;;;;;5056446;28;20441;-86
2022/04/17 07:57:03;;;;;;;3.58;3.28;;;7.60;99.90;;;;;;5039921;28;20055;-86
2022/04/17 07:59:29;;;;;;;3.65;3.35;;;7.60;99.90;;;;;;5039693;28;20028;-85
2022/04/17 08:02:01;;;;;;;3.97;3.60;;;7.60;99.90;;;;;;5056237;28;20028;-86
2022/04/17 08:04:32;;;;;;;3.97;3.58;;;7.60;99.90;;;;;;5056155;28;20040;-85
2022/04/17 08:07:01;;;;;;;3.47;3.17;;;7.70;99.90;;;;;;5056290;28;20376;-86
2022/04/17 08:09:26;;;;;;;8.07;6.55;;;7.90;99.90;;;;;;5074327;28;20032;-86
2022/04/17 08:11:53;;;;;;;5.85;4.03;;;8.00;99.90;;;;;;5055799;28;20082;-85
2022/04/17 08:14:21;;;;;;;4.07;3.65;;;7.90;99.90;;;;;;5039594;28;20117;-86
2022/04/17 08:16:47;;;;;;;3.85;3.55;;;8.20;99.90;;;;;;5056296;28;20021;-85
2022/04/17 08:19:13;;;;;;;3.35;2.80;;;8.30;99.90;;;;;;5055986;28;20110;-84
2022/04/17 08:21:40;;;;;;;2.65;2.42;;;8.20;99.90;;;;;;5039563;28;20562;-85
2022/04/17 08:24:06;;;;;;;3.10;2.80;;;8.20;99.90;;;;;;5055985;28;20027;-84
2022/04/17 08:26:32;;;;;;;3.30;2.20;;;8.10;99.70;;;;;;5055697;28;20029;-84
2022/04/17 08:28:58;;;;;;;5.88;4.10;;;8.10;98.70;;;;;;5055495;28;20029;-85
2022/04/17 08:31:24;;;;;;;8.75;4.80;;;8.10;99.90;;;;;;5073248;28;20072;-85
2022/04/17 08:33:50;;;;;;;5.03;3.20;;;8.10;99.90;;;;;;5055591;28;20059;-85
2022/04/17 08:36:16;;;;;;;3.47;2.85;;;8.20;99.50;;;;;;5055483;28;20020;-84
2022/04/17 08:38:44;;;;;;;3.05;2.75;;;8.30;99.80;;;;;;5055427;28;20024;-84
2022/04/17 08:41:11;;;;;;;3.67;3.13;;;8.30;99.40;;;;;;5055716;28;20025;-85
2022/04/17 08:43:38;;;;;;;3.47;3.17;;;8.40;99.90;;;;;;5055761;28;20166;-84
2022/04/17 08:46:04;;;;;;;3.58;3.28;;;8.40;99.00;;;;;;5073792;28;20035;-85
2022/04/17 08:48:36;;;;;;;3.45;3.15;;;8.60;99.60;;;;;;5039282;28;20029;-85
2022/04/17 08:51:05;;;;;;;4.93;3.03;;;8.70;98.80;;;;;;5038892;28;20036;-85
2022/04/17 08:53:34;;;;;;;3.08;2.78;;;8.80;99.80;;;;;;5039517;28;20378;-84
2022/04/17 08:56:00;;;;;;;3.72;3.15;;;8.80;98.10;;;;;;5055719;28;20020;-85
2022/04/17 08:58:28;;;;;;;3.63;2.92;;;8.90;98.00;;;;;;5024089;28;20111;-85
2022/04/17 09:00:54;;;;;;;2.70;2.25;;;9.10;97.80;;;;;;5043067;28;20529;-85
2022/04/17 09:03:20;;;;;;;2.60;2.40;;;9.00;96.30;;;;;;5059059;28;20024;-85
2022/04/17 09:05:47;;;;;;;3.70;2.25;;;9.20;95.70;;;;;;5059325;28;20056;-85
2022/04/17 09:08:17;;;;;;;3.97;2.92;;;9.30;94.90;;;;;;5059421;28;20074;-85
2022/04/17 09:10:56;;;;;;;2.40;2.20;;;9.60;95.10;;;;;;5077073;28;20472;-85
2022/04/17 09:13:34;;;;;;;4.43;2.83;;;9.70;93.60;;;;;;5059126;28;20039;-85
2022/04/17 09:16:06;;;;;;;4.32;2.72;;;10.00;94.20;;;;;;5042734;28;20028;-85
2022/04/17 09:18:34;;;;;;;9.32;4.55;;;10.20;93.00;;;;;;5077017;28;20115;-85
2022/04/17 09:21:03;;;;;;;7.15;4.32;;;10.30;92.50;;;;;;5058969;28;20540;-85
2022/04/17 09:23:37;;;;;;;3.53;2.30;;;10.50;92.00;;;;;;5076867;28;20024;-84
2022/04/17 09:26:07;;;;;;;3.17;2.78;;;10.50;91.00;;;;;;5072648;28;20475;-85
2022/04/17 09:28:37;;;;;;;3.17;2.80;;;10.40;90.20;;;;;;5058493;28;20032;-84
2022/04/17 09:31:11;;;;;;;5.32;2.83;;;10.20;89.40;;;;;;5042532;28;20036;-84
2022/04/17 09:33:39;;;;;;;19.98;8.48;;;10.10;86.30;;;;;;5042491;28;20028;-84
2022/04/17 09:36:08;;;;;;;3.60;2.75;;;10.00;88.40;;;;;;5076390;28;20031;-85
2022/04/17 09:38:38;;;;;;;1.90;1.80;;;10.00;87.60;;;;;;5042479;28;20041;-85
2022/04/17 09:41:15;;;;;;;2.70;2.47;;;10.10;86.90;;;;;;5076653;28;20467;-83
2022/04/17 09:43:43;;;;;;;4.25;3.10;;;10.10;83.80;;;;;;5076723;28;20041;-84
2022/04/17 09:46:13;;;;;;;2.45;2.10;;;10.00;87.30;;;;;;5076302;28;20539;-84
2022/04/17 09:48:43;;;;;;;4.22;3.65;;;9.90;84.40;;;;;;5041971;28;20043;-84
2022/04/17 09:51:25;;;;;;;1.98;1.80;;;10.00;87.40;;;;;;5041903;28;20113;-84
2022/04/17 09:54:03;;;;;;;3.13;1.85;;;10.10;82.80;;;;;;5076222;28;20073;-85
2022/04/17 09:56:41;;;;;;;2.17;2.08;;;10.00;85.10;;;;;;5076278;28;20138;-84
2022/04/17 09:59:33;;;;;;;2.10;1.98;;;9.60;84.40;;;;;;5076157;28;20069;-84
2022/04/17 10:01:59;;;;;;;3.90;2.60;;;9.40;86.90;;;;;;5037434;28;20391;-86
2022/04/17 10:04:26;;;;;;;4.72;3.33;;;9.20;89.20;;;;;;5058072;28;20052;-87
2022/04/17 10:06:59;;;;;;;3.88;3.30;;;9.10;89.00;;;;;;5058541;28;20111;-86
2022/04/17 10:09:26;;;;;;;3.47;3.17;;;8.90;89.20;;;;;;5057928;28;20391;-86
2022/04/17 10:11:59;;;;;;;3.70;2.78;;;8.70;90.20;;;;;;5058246;28;20104;-86
2022/04/17 10:14:28;;;;;;;4.05;2.90;;;8.50;91.00;;;;;;5042564;28;20025;-87
2022/04/17 10:16:55;;;;;;;3.00;2.70;;;8.60;91.10;;;;;;5058319;28;20472;-86
2022/04/17 10:19:24;;;;;;;3.28;2.97;;;8.70;91.80;;;;;;5075909;28;20024;-86
2022/04/17 10:21:51;;;;;;;4.18;3.50;;;8.80;91.80;;;;;;5041700;28;20028;-86
2022/04/17 10:24:19;;;;;;;4.45;3.30;;;8.80;91.80;;;;;;5058251;28;20051;-86
2022/04/17 10:26:52;;;;;;;3.17;2.88;;;9.00;91.80;;;;;;5075619;28;20016;-86
2022/04/17 10:29:56;;;;;;;2.65;2.47;;;9.10;91.40;;;;;;5041754;28;20043;-86
2022/04/17 10:33:08;;;;;;;2.78;2.58;;;9.10;91.60;;;;;;4958698;28;20041;-86
2022/04/17 10:36:13;;;;;;;3.70;3.00;;;9.00;90.70;;;;;;4988320;28;20179;-86
2022/04/17 10:38:48;;;;;;;4.00;3.25;;;9.10;90.90;;;;;;5057222;28;20024;-86
2022/04/17 10:41:15;;;;;;;3.20;2.90;;;9.30;90.90;;;;;;5057707;28;20028;-86
2022/04/17 10:43:51;;;;;;;3.92;2.70;;;9.40;91.20;;;;;;5075214;28;20033;-84
2022/04/17 10:46:18;;;;;;;3.10;2.80;;;9.50;89.00;;;;;;5075504;28;20032;-86
2022/04/17 10:48:55;;;;;;;3.28;2.60;;;9.70;88.70;;;;;;5075448;28;20048;-85
2022/04/17 10:51:33;;;;;;;2.95;2.65;;;9.80;86.60;;;;;;5057205;28;20024;-85
2022/04/17 10:54:15;;;;;;;3.25;2.47;;;9.90;86.20;;;;;;5057300;28;20111;-84
2022/04/17 10:56:57;;;;;;;4.00;2.47;;;10.10;84.60;;;;;;5024953;28;20494;-84
2022/04/17 10:59:32;;;;;;;2.55;2.28;;;10.20;85.30;;;;;;5040432;28;20136;-85
2022/04/17 11:02:29;;;;;;;2.30;1.98;;;10.40;84.10;;;;;;5056991;28;20024;-84
2022/04/17 11:04:56;;;;;;;2.65;1.95;;;10.60;81.60;;;;;;5054600;28;20040;-84
2022/04/17 11:07:31;;;;;;;2.30;2.10;;;10.70;80.60;;;;;;5056869;28;20032;-84
2022/04/17 11:10:15;;;;;;;2.13;1.92;;;10.70;82.50;;;;;;5074819;28;20035;-85
2022/04/17 11:12:54;;;;;;;2.47;2.28;;;10.70;82.00;;;;;;5074588;28;20020;-84
2022/04/17 11:15:22;;;;;;;2.53;2.33;;;10.40;79.90;;;;;;5057068;28;20109;-84
2022/04/17 11:17:50;;;;;;;2.40;2.20;;;10.30;79.90;;;;;;5056768;28;20074;-84
2022/04/17 11:20:19;;;;;;;2.55;2.35;;;9.90;80.00;;;;;;5039659;28;20036;-84
2022/04/17 11:22:45;;;;;;;2.50;2.30;;;9.80;81.70;;;;;;5040061;28;20089;-84
2022/04/17 11:25:12;;;;;;;3.70;3.05;;;9.70;81.70;;;;;;5040404;28;20032;-85
2022/04/17 11:27:41;;;;;;;3.58;2.95;;;9.60;81.70;;;;;;5056717;28;20043;-85
2022/04/17 11:30:14;;;;;;;5.78;3.15;;;9.60;81.10;;;;;;5074202;28;20060;-84
2022/04/17 11:32:40;;;;;;;3.92;2.92;;;9.40;81.50;;;;;;5074497;28;20037;-84
2022/04/17 11:35:15;;;;;;;3.20;2.90;;;9.60;83.30;;;;;;5074150;28;20111;-84
2022/04/17 11:37:53;;;;;;;2.83;2.60;;;9.80;82.30;;;;;;5056798;28;20024;-84
2022/04/17 11:40:21;;;;;;;2.40;2.20;;;10.30;81.30;;;;;;5051525;28;20036;-84
2022/04/17 11:42:50;;;;;;;2.50;2.30;;;10.60;80.20;;;;;;5056237;28;20025;-84
2022/04/17 11:45:27;;;;;;;4.05;2.75;;;10.90;80.40;;;;;;5039566;28;20029;-84
2022/04/17 11:47:54;;;;;;;2.67;2.47;;;11.20;79.30;;;;;;5039495;28;20052;-85
2022/04/17 11:50:27;;;;;;;3.53;2.35;;;11.30;78.90;;;;;;5039903;28;20082;-85
2022/04/17 11:52:55;;;;;;;4.15;2.80;;;11.30;79.50;;;;;;5073929;28;20021;-84
2022/04/17 11:55:26;;;;;;;2.70;2.50;;;11.60;79.50;;;;;;5073270;28;20052;-85
2022/04/17 11:57:53;;;;;;;3.53;2.50;;;11.40;75.80;;;;;;5073999;28;20021;-84
2022/04/17 12:00:20;;;;;;;3.97;2.53;;;11.30;76.90;;;;;;5039254;28;20050;-84
2022/04/17 12:02:46;;;;;;;2.53;2.33;;;11.00;77.00;;;;;;5039335;28;20032;-84
2022/04/17 12:05:13;;;;;;;3.20;2.90;;;10.80;77.60;;;;;;5055882;28;20052;-84
2022/04/17 12:07:44;;;;;;;2.80;2.60;;;10.60;77.50;;;;;;5073832;28;20025;-84
2022/04/17 12:10:14;;;;;;;3.20;2.80;;;10.50;78.30;;;;;;5072368;28;20043;-84
2022/04/17 12:12:43;;;;;;;4.15;2.95;;;10.40;78.60;;;;;;5055738;28;20032;-85
2022/04/17 12:15:12;;;;;;;4.50;2.93;;;10.20;78.90;;;;;;5055685;28;20097;-84
2022/04/17 12:17:39;;;;;;;5.53;3.70;;;10.00;78.60;;;;;;5072984;28;20043;-84
2022/04/17 12:20:14;;;;;;;4.43;2.92;;;9.80;78.70;;;;;;5055809;28;20450;-85
2022/04/17 12:22:41;;;;;;;6.43;4.10;;;9.60;80.30;;;;;;5055746;28;20529;-83
2022/04/17 12:25:22;;;;;;;3.78;3.38;;;9.50;81.50;;;;;;5074044;28;20103;-85
2022/04/17 12:27:50;;;;;;;5.05;4.00;;;9.40;82.60;;;;;;5055796;28;20035;-84
2022/04/17 12:30:20;;;;;;;3.60;3.30;;;9.10;82.80;;;;;;5055660;28;20029;-84
2022/04/17 12:32:55;;;;;;;3.40;3.10;;;8.90;83.10;;;;;;5057799;28;20025;-84
2022/04/17 12:35:26;;;;;;;3.55;3.25;;;8.80;84.00;;;;;;5045193;28;20033;-84
2022/04/17 12:38:04;;;;;;;4.20;3.50;;;8.60;84.10;;;;;;5077408;28;20467;-83
2022/04/17 12:40:38;;;;;;;4.70;4.20;;;8.70;84.60;;;;;;5073456;28;20162;-84
2022/04/17 12:43:21;;;;;;;3.55;3.25;;;8.70;85.20;;;;;;5077768;28;20032;-87
2022/04/17 12:46:04;;;;;;;4.25;3.85;;;8.80;86.20;;;;;;5059614;28;20031;-83
2022/04/17 12:48:35;;;;;;;5.20;3.85;;;8.90;84.90;;;;;;5077578;28;20024;-84
2022/04/17 12:51:09;;;;;;;4.15;3.75;;;8.90;83.30;;;;;;5077259;28;20017;-86
2022/04/17 12:53:44;;;;;;;4.32;3.70;;;8.90;83.00;;;;;;5077412;28;20544;-84
2022/04/17 12:56:11;;;;;;;3.92;3.55;;;9.00;83.20;;;;;;5042648;28;20028;-82
2022/04/17 12:58:58;;;;;;;3.95;3.53;;;9.20;81.60;;;;;;5042766;28;20024;-85
2022/04/17 13:01:37;;;;;;;3.22;2.92;;;9.40;81.90;;;;;;5059507;28;20425;-85
2022/04/17 13:04:16;;;;;;;3.20;2.90;;;9.70;81.50;;;;;;5077002;28;20032;-85
2022/04/17 13:06:43;;;;;;;3.22;2.92;;;10.00;82.00;;;;;;5036152;28;20043;-85
2022/04/17 13:09:18;;;;;;;2.65;2.45;;;10.20;81.40;;;;;;5035772;28;20030;-84
2022/04/17 13:11:53;;;;;;;3.25;2.95;;;10.10;79.80;;;;;;5035951;28;20021;-84